Terminal Aerodrome Forecast
Issued by NWS Tulsa, OK

Current Version | Previous Version | Text Only | Print | Product List | Glossary On
Versions: 1 2 3 4 5 6 7 8 9 10 11 12
000
FTUS44 KTSA 221741
TAFTUL
TAF
KTUL 221741Z 2218/2318 12008KT P6SM VCSH FEW035 BKN090 OVC120
      TEMPO 2220/2224 3SM -TSRA BKN050CB
     FM230000 01008KT P6SM VCSH OVC050
     FM230600 02006KT P6SM SCT250=

USA.gov is the U.S. government's official web portal to all federal, state and local government web resources and services.